sensor_id;sensor_type;location;lat;lon;timestamp;pressure;altitude;pressure_sealevel;temperature;humidity
6500;BME280;3283;52.330;9.772;2022-08-19T00:01:50;100527.47;;;20.17;100.00
6500;BME280;3283;52.330;9.772;2022-08-19T00:04:18;100523.41;;;20.10;100.00
6500;BME280;3283;52.330;9.772;2022-08-19T00:06:45;100529.06;;;20.04;100.00
6500;BME280;3283;52.330;9.772;2022-08-19T00:09:13;100528.28;;;20.02;100.00
6500;BME280;3283;52.330;9.772;2022-08-19T00:11:39;100520.91;;;19.90;100.00
6500;BME280;3283;52.330;9.772;2022-08-19T00:14:07;100515.13;;;19.82;100.00
6500;BME280;3283;52.330;9.772;2022-08-19T00:16:33;100516.22;;;19.78;100.00
6500;BME280;3283;52.330;9.772;2022-08-19T00:18:59;100513.88;;;19.71;100.00
6500;BME280;3283;52.330;9.772;2022-08-19T00:21:25;100506.03;;;19.68;100.00
6500;BME280;3283;52.330;9.772;2022-08-19T00:23:53;100499.97;;;19.65;100.00
6500;BME280;3283;52.330;9.772;2022-08-19T00:26:19;100494.91;;;19.60;100.00
6500;BME280;3283;52.330;9.772;2022-08-19T00:28:45;100481.13;;;19.51;100.00
6500;BME280;3283;52.330;9.772;2022-08-19T00:31:11;100480.66;;;19.42;100.00
6500;BME280;3283;52.330;9.772;2022-08-19T00:33:36;100483.72;;;19.35;100.00
6500;BME280;3283;52.330;9.772;2022-08-19T00:36:04;100490.31;;;19.28;100.00
6500;BME280;3283;52.330;9.772;2022-08-19T00:38:30;100489.84;;;19.19;100.00
6500;BME280;3283;52.330;9.772;2022-08-19T00:40:56;100479.38;;;19.15;100.00
6500;BME280;3283;52.330;9.772;2022-08-19T00:43:23;100484.09;;;19.10;100.00
6500;BME280;3283;52.330;9.772;2022-08-19T00:45:50;100486.06;;;19.06;100.00
6500;BME280;3283;52.330;9.772;2022-08-19T00:48:18;100484.34;;;19.05;100.00
6500;BME280;3283;52.330;9.772;2022-08-19T00:50:44;100474.75;;;19.01;100.00
6500;BME280;3283;52.330;9.772;2022-08-19T00:53:16;100467.84;;;18.97;100.00
6500;BME280;3283;52.330;9.772;2022-08-19T00:55:48;100455.47;;;18.96;100.00
6500;BME280;3283;52.330;9.772;2022-08-19T00:58:17;100458.91;;;18.98;100.00
6500;BME280;3283;52.330;9.772;2022-08-19T01:00:45;100450.75;;;18.84;100.00
6500;BME280;3283;52.330;9.772;2022-08-19T01:03:14;100446.19;;;18.86;100.00
6500;BME280;3283;52.330;9.772;2022-08-19T01:05:42;100450.88;;;18.81;100.00
6500;BME280;3283;52.330;9.772;2022-08-19T01:08:09;100450.25;;;18.76;100.00
6500;BME280;3283;52.330;9.772;2022-08-19T01:10:52;100449.31;;;18.77;100.00
6500;BME280;3283;52.330;9.772;2022-08-19T01:13:21;100450.41;;;18.73;100.00
6500;BME280;3283;52.330;9.772;2022-08-19T01:15:56;100449.75;;;18.67;100.00
6500;BME280;3283;52.330;9.772;2022-08-19T01:18:23;100458.69;;;18.66;100.00
6500;BME280;3283;52.330;9.772;2022-08-19T01:20:50;100458.75;;;18.65;100.00
6500;BME280;3283;52.330;9.772;2022-08-19T01:23:17;100465.63;;;18.71;100.00
6500;BME280;3283;52.330;9.772;2022-08-19T01:25:46;100474.69;;;18.66;100.00
6500;BME280;3283;52.330;9.772;2022-08-19T01:28:18;100464.47;;;18.76;100.00
6500;BME280;3283;52.330;9.772;2022-08-19T01:30:45;100470.47;;;18.80;100.00
6500;BME280;3283;52.330;9.772;2022-08-19T01:33:10;100462.19;;;18.86;100.00
6500;BME280;3283;52.330;9.772;2022-08-19T01:35:37;100459.53;;;18.86;100.00
6500;BME280;3283;52.330;9.772;2022-08-19T01:38:06;100467.69;;;18.83;100.00
6500;BME280;3283;52.330;9.772;2022-08-19T01:40:34;100466.81;;;18.82;100.00
6500;BME280;3283;52.330;9.772;2022-08-19T01:43:00;100456.22;;;18.81;100.00
6500;BME280;3283;52.330;9.772;2022-08-19T01:45:30;100445.06;;;18.73;100.00
6500;BME280;3283;52.330;9.772;2022-08-19T01:47:57;100449.75;;;18.67;100.00
6500;BME280;3283;52.330;9.772;2022-08-19T01:50:23;100439.50;;;18.58;100.00
6500;BME280;3283;52.330;9.772;2022-08-19T01:52:49;100443.19;;;18.56;100.00
6500;BME280;3283;52.330;9.772;2022-08-19T01:55:19;100433.69;;;18.50;100.00
6500;BME280;3283;52.330;9.772;2022-08-19T01:57:52;100436.28;;;18.52;100.00
6500;BME280;3283;52.330;9.772;2022-08-19T02:00:22;100432.53;;;18.56;100.00
6500;BME280;3283;52.330;9.772;2022-08-19T02:02:48;100441.41;;;18.56;100.00
6500;BME280;3283;52.330;9.772;2022-08-19T02:05:14;100441.41;;;18.56;100.00
6500;BME280;3283;52.330;9.772;2022-08-19T02:07:43;100441.41;;;18.56;100.00
6500;BME280;3283;52.330;9.772;2022-08-19T02:10:12;100436.94;;;18.57;100.00
6500;BME280;3283;52.330;9.772;2022-08-19T02:12:38;100447.81;;;18.52;100.00
6500;BME280;3283;52.330;9.772;2022-08-19T02:15:04;100438.00;;;18.53;100.00
6500;BME280;3283;52.330;9.772;2022-08-19T02:17:31;100445.00;;;18.55;100.00
6500;BME280;3283;52.330;9.772;2022-08-19T02:19:56;100438.75;;;18.56;100.00
6500;BME280;3283;52.330;9.772;2022-08-19T02:22:23;100438.44;;;18.62;100.00
6500;BME280;3283;52.330;9.772;2022-08-19T02:24:53;100426.97;;;18.60;100.00
6500;BME280;3283;52.330;9.772;2022-08-19T02:27:19;100426.06;;;18.61;100.00
6500;BME280;3283;52.330;9.772;2022-08-19T02:29:47;100437.50;;;18.63;100.00
6500;BME280;3283;52.330;9.772;2022-08-19T02:32:14;100419.44;;;18.51;100.00
6500;BME280;3283;52.330;9.772;2022-08-19T02:34:39;100422.75;;;18.56;100.00
6500;BME280;3283;52.330;9.772;2022-08-19T02:37:05;100413.03;;;18.55;100.00
6500;BME280;3283;52.330;9.772;2022-08-19T02:39:30;100418.19;;;18.58;100.00
6500;BME280;3283;52.330;9.772;2022-08-19T02:41:58;100419.22;;;18.56;100.00
6500;BME280;3283;52.330;9.772;2022-08-19T02:44:24;100426.34;;;18.55;100.00
6500;BME280;3283;52.330;9.772;2022-08-19T02:46:50;100412.47;;;18.49;100.00
6500;BME280;3283;52.330;9.772;2022-08-19T02:49:15;100421.09;;;18.54;100.00
6500;BME280;3283;52.330;9.772;2022-08-19T02:51:44;100418.50;;;18.52;100.00
6500;BME280;3283;52.330;9.772;2022-08-19T02:54:11;100426.47;;;18.52;100.00
6500;BME280;3283;52.330;9.772;2022-08-19T02:56:39;100433.53;;;18.53;100.00
6500;BME280;3283;52.330;9.772;2022-08-19T02:59:06;100428.44;;;18.49;100.00
6500;BME280;3283;52.330;9.772;2022-08-19T03:01:37;100432.66;;;18.53;100.00
6500;BME280;3283;52.330;9.772;2022-08-19T03:04:06;100435.91;;;18.59;100.00
6500;BME280;3283;52.330;9.772;2022-08-19T03:06:36;100432.09;;;18.65;100.00
6500;BME280;3283;52.330;9.772;2022-08-19T03:09:02;100446.94;;;18.71;100.00
6500;BME280;3283;52.330;9.772;2022-08-19T03:11:30;100432.25;;;18.62;100.00
6500;BME280;3283;52.330;9.772;2022-08-19T03:13:56;100435.59;;;18.65;100.00
6500;BME280;3283;52.330;9.772;2022-08-19T03:16:24;100427.84;;;18.61;100.00
6500;BME280;3283;52.330;9.772;2022-08-19T03:18:50;100439.72;;;18.73;100.00
6500;BME280;3283;52.330;9.772;2022-08-19T03:21:18;100450.31;;;18.74;100.00
6500;BME280;3283;52.330;9.772;2022-08-19T03:23:44;100458.25;;;18.76;100.00
6500;BME280;3283;52.330;9.772;2022-08-19T03:26:09;100462.09;;;18.70;100.00
6500;BME280;3283;52.330;9.772;2022-08-19T03:28:35;100457.88;;;18.64;100.00
6500;BME280;3283;52.330;9.772;2022-08-19T03:31:05;100456.16;;;18.63;100.00
6500;BME280;3283;52.330;9.772;2022-08-19T03:33:33;100455.03;;;18.69;100.00
6500;BME280;3283;52.330;9.772;2022-08-19T03:36:00;100449.75;;;18.67;100.00
6500;BME280;3283;52.330;9.772;2022-08-19T03:38:26;100450.03;;;18.61;100.00
6500;BME280;3283;52.330;9.772;2022-08-19T03:40:51;100456.63;;;18.54;100.00
6500;BME280;3283;52.330;9.772;2022-08-19T03:43:17;100465.88;;;18.46;100.00
6500;BME280;3283;52.330;9.772;2022-08-19T03:45:43;100468.34;;;18.50;100.00
6500;BME280;3283;52.330;9.772;2022-08-19T03:48:08;100473.50;;;18.53;100.00
6500;BME280;3283;52.330;9.772;2022-08-19T03:50:39;100468.34;;;18.50;100.00
6500;BME280;3283;52.330;9.772;2022-08-19T03:53:04;100470.22;;;18.48;100.00
6500;BME280;3283;52.330;9.772;2022-08-19T03:55:31;100472.09;;;18.46;100.00
6500;BME280;3283;52.330;9.772;2022-08-19T03:57:56;100469.56;;;18.43;100.00
6500;BME280;3283;52.330;9.772;2022-08-19T04:00:22;100466.25;;;18.38;100.00
6500;BME280;3283;52.330;9.772;2022-08-19T04:02:47;100462.97;;;18.33;100.00
6500;BME280;3283;52.330;9.772;2022-08-19T04:05:13;100456.78;;;18.32;100.00
6500;BME280;3283;52.330;9.772;2022-08-19T04:07:39;100465.09;;;18.25;100.00
6500;BME280;3283;52.330;9.772;2022-08-19T04:10:05;100466.22;;;18.21;100.00
6500;BME280;3283;52.330;9.772;2022-08-19T04:12:30;100467.16;;;18.20;100.00
6500;BME280;3283;52.330;9.772;2022-08-19T04:14:56;100476.06;;;18.19;100.00
6500;BME280;3283;52.330;9.772;2022-08-19T04:17:21;100477.28;;;18.11;100.00
6500;BME280;3283;52.330;9.772;2022-08-19T04:19:47;100474.97;;;18.04;100.00
6500;BME280;3283;52.330;9.772;2022-08-19T04:22:13;100475.13;;;18.01;100.00
6500;BME280;3283;52.330;9.772;2022-08-19T04:24:38;100469.09;;;17.97;100.00
6500;BME280;3283;52.330;9.772;2022-08-19T04:27:04;100472.38;;;18.02;100.00
6500;BME280;3283;52.330;9.772;2022-08-19T04:29:30;100462.84;;;17.97;100.00
6500;BME280;3283;52.330;9.772;2022-08-19T04:31:56;100465.59;;;17.95;100.00
6500;BME280;3283;52.330;9.772;2022-08-19T04:34:26;100458.97;;;17.85;100.00
6500;BME280;3283;52.330;9.772;2022-08-19T04:36:54;100458.97;;;17.85;100.00
6500;BME280;3283;52.330;9.772;2022-08-19T04:39:23;100458.19;;;17.83;100.00
6500;BME280;3283;52.330;9.772;2022-08-19T04:42:08;100455.66;;;17.80;100.00
6500;BME280;3283;52.330;9.772;2022-08-19T04:44:52;100455.81;;;17.77;100.00
6500;BME280;3283;52.330;9.772;2022-08-19T04:47:18;100464.78;;;17.74;100.00
6500;BME280;3283;52.330;9.772;2022-08-19T04:49:43;100472.69;;;17.76;100.00
6500;BME280;3283;52.330;9.772;2022-08-19T04:52:09;100476.25;;;17.76;100.00
6500;BME280;3283;52.330;9.772;2022-08-19T04:54:34;100476.28;;;17.75;100.00
6500;BME280;3283;52.330;9.772;2022-08-19T04:56:59;100477.22;;;17.74;100.00
6500;BME280;3283;52.330;9.772;2022-08-19T04:59:25;100485.88;;;17.79;100.00
6500;BME280;3283;52.330;9.772;2022-08-19T05:01:50;100487.53;;;17.81;100.00
6500;BME280;3283;52.330;9.772;2022-08-19T05:04:19;100485.72;;;17.82;100.00
6500;BME280;3283;52.330;9.772;2022-08-19T05:06:45;100494.25;;;17.90;100.00
6500;BME280;3283;52.330;9.772;2022-08-19T05:09:12;100495.63;;;17.99;100.00
6500;BME280;3283;52.330;9.772;2022-08-19T05:11:37;100494.78;;;17.98;100.00
6500;BME280;3283;52.330;9.772;2022-08-19T05:14:07;100486.13;;;17.93;100.00
6500;BME280;3283;52.330;9.772;2022-08-19T05:16:34;100473.94;;;17.88;100.00
6500;BME280;3283;52.330;9.772;2022-08-19T05:19:00;100471.09;;;17.92;100.00
6500;BME280;3283;52.330;9.772;2022-08-19T05:21:44;100475.53;;;17.92;100.00
6500;BME280;3283;52.330;9.772;2022-08-19T05:24:28;100464.97;;;17.90;100.00
6500;BME280;3283;52.330;9.772;2022-08-19T05:26:55;100468.50;;;17.91;100.00
6500;BME280;3283;52.330;9.772;2022-08-19T05:29:25;100468.53;;;17.89;100.00
6500;BME280;3283;52.330;9.772;2022-08-19T05:31:52;100464.03;;;17.91;100.00
6500;BME280;3283;52.330;9.772;2022-08-19T05:34:20;100471.94;;;17.93;100.00
6500;BME280;3283;52.330;9.772;2022-08-19T05:36:48;100469.09;;;17.97;100.00
6500;BME280;3283;52.330;9.772;2022-08-19T05:39:17;100470.81;;;17.98;100.00
6500;BME280;3283;52.330;9.772;2022-08-19T05:41:44;100466.34;;;17.99;100.00
6500;BME280;3283;52.330;9.772;2022-08-19T05:44:11;100476.16;;;17.97;100.00
6500;BME280;3283;52.330;9.772;2022-08-19T05:46:38;100469.94;;;17.98;100.00
6500;BME280;3283;52.330;9.772;2022-08-19T05:49:05;100465.19;;;18.04;100.00
6500;BME280;3283;52.330;9.772;2022-08-19T05:51:31;100475.63;;;18.09;100.00
6500;BME280;3283;52.330;9.772;2022-08-19T05:53:59;100477.41;;;18.08;100.00
6500;BME280;3283;52.330;9.772;2022-08-19T05:56:24;100462.00;;;17.96;100.00
6500;BME280;3283;52.330;9.772;2022-08-19T05:58:50;100470.81;;;17.98;100.00
6500;BME280;3283;52.330;9.772;2022-08-19T06:01:17;100477.84;;;17.99;100.00
6500;BME280;3283;52.330;9.772;2022-08-19T06:03:44;100476.75;;;18.03;100.00
6500;BME280;3283;52.330;9.772;2022-08-19T06:06:11;100484.94;;;18.19;100.00
6500;BME280;3283;52.330;9.772;2022-08-19T06:08:38;100489.25;;;18.22;100.00
6500;BME280;3283;52.330;9.772;2022-08-19T06:11:16;100493.78;;;18.20;100.00
6500;BME280;3283;52.330;9.772;2022-08-19T06:13:43;100491.16;;;18.18;100.00
6500;BME280;3283;52.330;9.772;2022-08-19T06:16:12;100490.84;;;18.26;100.00
6500;BME280;3283;52.330;9.772;2022-08-19T06:18:38;100488.09;;;18.27;100.00
6500;BME280;3283;52.330;9.772;2022-08-19T06:21:03;100497.31;;;18.20;100.00
6500;BME280;3283;52.330;9.772;2022-08-19T06:23:30;100498.25;;;18.19;100.00
6500;BME280;3283;52.330;9.772;2022-08-19T06:25:56;100506.59;;;18.30;100.00
6500;BME280;3283;52.330;9.772;2022-08-19T06:28:21;100493.84;;;18.37;100.00
6500;BME280;3283;52.330;9.772;2022-08-19T06:30:48;100510.00;;;18.34;100.00
6500;BME280;3283;52.330;9.772;2022-08-19T06:33:14;100508.09;;;18.36;100.00
6500;BME280;3283;52.330;9.772;2022-08-19T06:35:40;100515.16;;;18.37;100.00
6500;BME280;3283;52.330;9.772;2022-08-19T06:38:06;100507.38;;;18.51;100.00
6500;BME280;3283;52.330;9.772;2022-08-19T06:40:31;100507.66;;;18.64;100.00
6500;BME280;3283;52.330;9.772;2022-08-19T06:42:57;100506.53;;;18.51;100.00
6500;BME280;3283;52.330;9.772;2022-08-19T06:45:24;100514.72;;;18.65;100.00
6500;BME280;3283;52.330;9.772;2022-08-19T06:47:50;100520.56;;;18.73;100.00
6500;BME280;3283;52.330;9.772;2022-08-19T06:50:21;100503.88;;;18.70;100.00
6500;BME280;3283;52.330;9.772;2022-08-19T06:52:47;100523.44;;;18.87;100.00
6500;BME280;3283;52.330;9.772;2022-08-19T06:55:12;100530.50;;;18.88;100.00
6500;BME280;3283;52.330;9.772;2022-08-19T06:57:38;100527.34;;;18.80;100.00
6500;BME280;3283;52.330;9.772;2022-08-19T07:00:05;100530.81;;;18.82;100.00
6500;BME280;3283;52.330;9.772;2022-08-19T07:02:33;100533.69;;;18.78;100.00
6500;BME280;3283;52.330;9.772;2022-08-19T07:05:02;100535.78;;;18.71;100.00
6500;BME280;3283;52.330;9.772;2022-08-19T07:07:28;100548.25;;;18.71;100.00
6500;BME280;3283;52.330;9.772;2022-08-19T07:09:54;100551.28;;;18.82;100.00
6500;BME280;3283;52.330;9.772;2022-08-19T07:12:19;100542.28;;;19.02;100.00
6500;BME280;3283;52.330;9.772;2022-08-19T07:14:45;100536.25;;;18.98;100.00
6500;BME280;3283;52.330;9.772;2022-08-19T07:17:11;100551.31;;;18.99;100.00
6500;BME280;3283;52.330;9.772;2022-08-19T07:19:38;100558.72;;;19.11;100.00
6500;BME280;3283;52.330;9.772;2022-08-19T07:22:06;100558.91;;;19.26;100.00
6500;BME280;3283;52.330;9.772;2022-08-19T07:24:33;100553.97;;;19.35;100.00
6500;BME280;3283;52.330;9.772;2022-08-19T07:27:01;100565.38;;;19.56;100.00
6500;BME280;3283;52.330;9.772;2022-08-19T07:29:33;100567.25;;;19.54;100.00
6500;BME280;3283;52.330;9.772;2022-08-19T07:32:00;100581.03;;;19.81;100.00
6500;BME280;3283;52.330;9.772;2022-08-19T07:34:29;100589.09;;;19.97;100.00
6500;BME280;3283;52.330;9.772;2022-08-19T07:36:55;100588.13;;;20.15;100.00
6500;BME280;3283;52.330;9.772;2022-08-19T07:39:24;100581.56;;;20.05;99.29
6500;BME280;3283;52.330;9.772;2022-08-19T07:41:51;100589.53;;;20.22;98.56
6500;BME280;3283;52.330;9.772;2022-08-19T07:44:18;100598.63;;;20.53;96.93
6500;BME280;3283;52.330;9.772;2022-08-19T07:46:47;100609.47;;;20.50;97.01
6500;BME280;3283;52.330;9.772;2022-08-19T07:49:14;100614.91;;;20.31;97.42
6500;BME280;3283;52.330;9.772;2022-08-19T07:51:51;100617.66;;;20.29;98.52
6500;BME280;3283;52.330;9.772;2022-08-19T07:54:19;100611.84;;;20.21;97.61
6500;BME280;3283;52.330;9.772;2022-08-19T07:56:45;100616.25;;;20.22;98.74
6500;BME280;3283;52.330;9.772;2022-08-19T07:59:11;100606.63;;;20.36;97.62
6500;BME280;3283;52.330;9.772;2022-08-19T08:01:37;100609.19;;;20.21;97.27
6500;BME280;3283;52.330;9.772;2022-08-19T08:04:02;100612.78;;;20.38;97.36
6500;BME280;3283;52.330;9.772;2022-08-19T08:06:46;100618.81;;;20.59;95.29
6500;BME280;3283;52.330;9.772;2022-08-19T08:09:36;100628.50;;;20.44;94.81
6500;BME280;3283;52.330;9.772;2022-08-19T08:12:17;100629.75;;;20.37;95.02
6500;BME280;3283;52.330;9.772;2022-08-19T08:14:49;100621.00;;;20.50;95.24
6500;BME280;3283;52.330;9.772;2022-08-19T08:17:17;100615.88;;;20.63;94.19
6500;BME280;3283;52.330;9.772;2022-08-19T08:19:44;100620.44;;;20.61;94.21
6500;BME280;3283;52.330;9.772;2022-08-19T08:22:11;100618.44;;;20.65;93.55
6500;BME280;3283;52.330;9.772;2022-08-19T08:25:06;100621.59;;;20.73;92.44
6500;BME280;3283;52.330;9.772;2022-08-19T08:27:35;100623.41;;;21.04;89.93
6500;BME280;3283;52.330;9.772;2022-08-19T08:30:02;100617.28;;;21.33;89.67
6500;BME280;3283;52.330;9.772;2022-08-19T08:32:29;100609.75;;;21.86;85.31
6500;BME280;3283;52.330;9.772;2022-08-19T08:34:55;100625.84;;;21.40;86.32
6500;BME280;3283;52.330;9.772;2022-08-19T08:37:21;100623.78;;;21.29;87.49
6500;BME280;3283;52.330;9.772;2022-08-19T08:39:47;100628.25;;;21.13;87.39
6500;BME280;3283;52.330;9.772;2022-08-19T08:42:21;100625.03;;;20.91;88.55
6500;BME280;3283;52.330;9.772;2022-08-19T08:45:00;100621.41;;;20.92;88.98
6500;BME280;3283;52.330;9.772;2022-08-19T08:47:31;100620.38;;;20.78;89.12
6500;BME280;3283;52.330;9.772;2022-08-19T08:50:06;100622.91;;;20.81;89.80
6500;BME280;3283;52.330;9.772;2022-08-19T08:52:37;100619.97;;;20.86;89.36
6500;BME280;3283;52.330;9.772;2022-08-19T08:55:11;100617.72;;;21.10;87.76
6500;BME280;3283;52.330;9.772;2022-08-19T09:00:33;100626.56;;;20.79;89.39
6500;BME280;3283;52.330;9.772;2022-08-19T09:03:00;100622.81;;;21.15;87.14
6500;BME280;3283;52.330;9.772;2022-08-19T09:08:15;100616.38;;;21.64;83.05
6500;BME280;3283;52.330;9.772;2022-08-19T09:10:53;100632.13;;;21.55;83.95
6500;BME280;3283;52.330;9.772;2022-08-19T09:16:06;100622.56;;;21.35;82.85
6500;BME280;3283;52.330;9.772;2022-08-19T09:21:13;100619.38;;;21.74;81.86
6500;BME280;3283;52.330;9.772;2022-08-19T09:23:39;100623.31;;;21.83;80.78
6500;BME280;3283;52.330;9.772;2022-08-19T09:26:15;100612.72;;;21.96;80.62
6500;BME280;3283;52.330;9.772;2022-08-19T09:28:42;100612.47;;;22.00;79.66
6500;BME280;3283;52.330;9.772;2022-08-19T09:31:13;100609.91;;;22.13;78.31
6500;BME280;3283;52.330;9.772;2022-08-19T09:33:39;100597.63;;;21.94;79.73
6500;BME280;3283;52.330;9.772;2022-08-19T09:36:07;100603.94;;;21.93;80.47
6500;BME280;3283;52.330;9.772;2022-08-19T09:38:35;100605.72;;;22.09;81.04
6500;BME280;3283;52.330;9.772;2022-08-19T09:41:12;100605.06;;;22.48;78.51
6500;BME280;3283;52.330;9.772;2022-08-19T09:43:39;100605.94;;;22.63;78.57
6500;BME280;3283;52.330;9.772;2022-08-19T09:46:06;100599.03;;;22.87;76.30
6500;BME280;3283;52.330;9.772;2022-08-19T09:48:33;100605.94;;;22.91;76.93
6500;BME280;3283;52.330;9.772;2022-08-19T09:51:06;100615.00;;;23.03;75.65
6500;BME280;3283;52.330;9.772;2022-08-19T09:53:34;100621.44;;;23.00;75.07
6500;BME280;3283;52.330;9.772;2022-08-19T09:56:00;100612.63;;;23.25;74.30
6500;BME280;3283;52.330;9.772;2022-08-19T09:58:25;100611.72;;;23.12;73.80
6500;BME280;3283;52.330;9.772;2022-08-19T10:00:57;100610.53;;;23.16;73.44
6500;BME280;3283;52.330;9.772;2022-08-19T10:03:24;100605.44;;;23.26;73.31
6500;BME280;3283;52.330;9.772;2022-08-19T10:05:49;100606.56;;;23.36;74.41
6500;BME280;3283;52.330;9.772;2022-08-19T10:08:20;100606.00;;;23.31;72.33
6500;BME280;3283;52.330;9.772;2022-08-19T10:10:46;100599.59;;;23.46;73.27
6500;BME280;3283;52.330;9.772;2022-08-19T10:13:13;100606.97;;;23.30;73.82
6500;BME280;3283;52.330;9.772;2022-08-19T10:15:39;100603.34;;;23.44;72.70
6500;BME280;3283;52.330;9.772;2022-08-19T10:18:06;100608.56;;;23.60;71.55
6500;BME280;3283;52.330;9.772;2022-08-19T10:20:31;100604.94;;;23.61;71.49
6500;BME280;3283;52.330;9.772;2022-08-19T10:22:57;100602.97;;;24.02;71.57
6500;BME280;3283;52.330;9.772;2022-08-19T10:25:24;100592.56;;;24.61;70.32
6500;BME280;3283;52.330;9.772;2022-08-19T10:27:52;100595.56;;;24.70;67.90
6500;BME280;3283;52.330;9.772;2022-08-19T10:30:18;100596.09;;;24.24;68.18
6500;BME280;3283;52.330;9.772;2022-08-19T10:32:45;100587.44;;;24.33;67.01
6500;BME280;3283;52.330;9.772;2022-08-19T10:35:12;100582.00;;;24.20;67.91
6500;BME280;3283;52.330;9.772;2022-08-19T10:37:38;100570.72;;;24.53;67.55
6500;BME280;3283;52.330;9.772;2022-08-19T10:40:06;100573.78;;;24.73;66.20
6500;BME280;3283;52.330;9.772;2022-08-19T10:42:33;100566.09;;;24.43;66.41
6500;BME280;3283;52.330;9.772;2022-08-19T10:44:59;100559.00;;;24.42;66.00
6500;BME280;3283;52.330;9.772;2022-08-19T10:47:25;100565.34;;;24.28;65.75
6500;BME280;3283;52.330;9.772;2022-08-19T10:49:50;100555.97;;;24.21;65.52
6500;BME280;3283;52.330;9.772;2022-08-19T10:52:35;100558.13;;;24.16;66.73
6500;BME280;3283;52.330;9.772;2022-08-19T10:55:06;100553.06;;;24.49;67.57
6500;BME280;3283;52.330;9.772;2022-08-19T10:57:50;100541.41;;;24.74;65.69
6500;BME280;3283;52.330;9.772;2022-08-19T11:00:17;100537.59;;;24.77;67.88
6500;BME280;3283;52.330;9.772;2022-08-19T11:02:43;100534.91;;;25.13;67.20
6500;BME280;3283;52.330;9.772;2022-08-19T11:05:09;100530.91;;;25.19;67.50
6500;BME280;3283;52.330;9.772;2022-08-19T11:07:38;100543.69;;;25.04;65.62
6500;BME280;3283;52.330;9.772;2022-08-19T11:10:05;100541.16;;;25.01;63.65
6500;BME280;3283;52.330;9.772;2022-08-19T11:12:30;100539.69;;;24.97;64.55
6500;BME280;3283;52.330;9.772;2022-08-19T11:14:56;100540.38;;;24.88;62.65
6500;BME280;3283;52.330;9.772;2022-08-19T11:17:21;100541.03;;;24.79;62.77
6500;BME280;3283;52.330;9.772;2022-08-19T11:19:49;100538.88;;;24.84;61.85
6500;BME280;3283;52.330;9.772;2022-08-19T11:22:15;100516.38;;;24.85;62.18
6500;BME280;3283;52.330;9.772;2022-08-19T11:24:41;100518.66;;;24.78;63.04
6500;BME280;3283;52.330;9.772;2022-08-19T11:27:09;100521.22;;;24.80;62.83
6500;BME280;3283;52.330;9.772;2022-08-19T11:29:37;100521.91;;;25.07;61.79
6500;BME280;3283;52.330;9.772;2022-08-19T11:32:09;100519.34;;;25.41;61.87
6500;BME280;3283;52.330;9.772;2022-08-19T11:34:35;100510.72;;;25.25;61.99
6500;BME280;3283;52.330;9.772;2022-08-19T11:37:02;100509.03;;;25.35;62.61
6500;BME280;3283;52.330;9.772;2022-08-19T11:39:30;100508.72;;;25.15;61.65
6500;BME280;3283;52.330;9.772;2022-08-19T11:41:57;100511.53;;;25.01;62.15
6500;BME280;3283;52.330;9.772;2022-08-19T11:44:24;100525.25;;;24.98;62.09
6500;BME280;3283;52.330;9.772;2022-08-19T11:46:51;100511.13;;;25.07;61.89
6500;BME280;3283;52.330;9.772;2022-08-19T11:49:19;100520.19;;;25.06;62.24
6500;BME280;3283;52.330;9.772;2022-08-19T11:51:45;100520.25;;;25.17;62.48
6500;BME280;3283;52.330;9.772;2022-08-19T11:54:13;100529.03;;;24.96;63.63
6500;BME280;3283;52.330;9.772;2022-08-19T11:56:40;100521.16;;;25.05;64.76
6500;BME280;3283;52.330;9.772;2022-08-19T11:59:05;100517.63;;;25.40;63.28
6500;BME280;3283;52.330;9.772;2022-08-19T12:01:33;100512.84;;;25.32;62.59
6500;BME280;3283;52.330;9.772;2022-08-19T12:03:58;100513.28;;;25.61;61.52
6500;BME280;3283;52.330;9.772;2022-08-19T12:06:27;100507.75;;;26.09;61.38
6500;BME280;3283;52.330;9.772;2022-08-19T12:09:05;100506.50;;;25.80;60.00
6500;BME280;3283;52.330;9.772;2022-08-19T12:11:31;100510.59;;;25.61;60.06
6500;BME280;3283;52.330;9.772;2022-08-19T12:13:57;100492.09;;;25.22;61.29
6500;BME280;3283;52.330;9.772;2022-08-19T12:16:26;100484.88;;;25.22;61.21
6500;BME280;3283;52.330;9.772;2022-08-19T12:18:53;100487.13;;;25.04;61.49
6500;BME280;3283;52.330;9.772;2022-08-19T12:21:21;100489.72;;;24.93;61.57
6500;BME280;3283;52.330;9.772;2022-08-19T12:23:49;100495.16;;;25.17;61.16
6500;BME280;3283;52.330;9.772;2022-08-19T12:26:15;100501.59;;;25.38;60.67
6500;BME280;3283;52.330;9.772;2022-08-19T12:28:41;100509.31;;;25.43;59.82
6500;BME280;3283;52.330;9.772;2022-08-19T12:31:07;100510.28;;;25.42;60.23
6500;BME280;3283;52.330;9.772;2022-08-19T12:33:33;100503.63;;;25.24;60.75
6500;BME280;3283;52.330;9.772;2022-08-19T12:36:04;100496.75;;;25.19;62.14
6500;BME280;3283;52.330;9.772;2022-08-19T12:38:30;100498.91;;;25.38;61.28
6500;BME280;3283;52.330;9.772;2022-08-19T12:40:58;100492.84;;;25.24;61.58
6500;BME280;3283;52.330;9.772;2022-08-19T12:43:24;100490.09;;;25.12;61.68
6500;BME280;3283;52.330;9.772;2022-08-19T12:45:50;100510.72;;;25.25;60.83
6500;BME280;3283;52.330;9.772;2022-08-19T12:48:15;100512.97;;;25.31;60.75
6500;BME280;3283;52.330;9.772;2022-08-19T12:50:43;100517.75;;;25.38;60.08
6500;BME280;3283;52.330;9.772;2022-08-19T12:53:11;100514.09;;;25.74;59.76
6500;BME280;3283;52.330;9.772;2022-08-19T12:55:36;100510.22;;;26.01;59.17
6500;BME280;3283;52.330;9.772;2022-08-19T12:58:02;100505.19;;;26.19;57.83
6500;BME280;3283;52.330;9.772;2022-08-19T13:00:28;100501.03;;;26.15;57.62
6500;BME280;3283;52.330;9.772;2022-08-19T13:02:53;100478.38;;;25.60;58.66
6500;BME280;3283;52.330;9.772;2022-08-19T13:05:22;100491.72;;;25.61;58.25
6500;BME280;3283;52.330;9.772;2022-08-19T13:07:49;100484.38;;;25.52;58.59
6500;BME280;3283;52.330;9.772;2022-08-19T13:10:19;100481.06;;;25.71;59.03
6500;BME280;3283;52.330;9.772;2022-08-19T13:12:48;100486.41;;;25.84;58.89
6500;BME280;3283;52.330;9.772;2022-08-19T13:15:15;100493.78;;;26.04;59.01
6500;BME280;3283;52.330;9.772;2022-08-19T13:17:45;100487.75;;;26.00;57.38
6500;BME280;3283;52.330;9.772;2022-08-19T13:20:12;100484.44;;;25.97;57.39